Fort Wingate, New Mexico
Current Conditions -  °F | °C
As of 11:53 AM on Friday 28 Nov 2014 (Local Time) from KGUP Reporting Station
Clear Clear  
Wind Chill: 17°   Ceiling: Unl
Heat Index: 17°   Visibility: 10mi
Dew Point: -11°   Wind: 12mph
Humidity: 15%   Direction: 250°WSW
Pressure: 30.23"   Gusts: 18mph
Location:  35.47°N, 108.55°W
Report Text: KGUP 281853Z AUTO 25010G16KT 10SM CLR 17/M11 A3023 RMK AO2 SLP184 T01671106
Loading
Personal Weather Stations






























Interactive Weather Map New forecast layout! Learn more

10-Day Weather Forecast

Advertisements
Track Severe Weather on mobile